sensor_id;sensor_type;location;lat;lon;timestamp;P1;durP1;ratioP1;P2;durP2;ratioP2
22363;SDS011;11349;53.412;-1.328;2023-12-04T00:01:15;39.63;;;14.10;;
22363;SDS011;11349;53.412;-1.328;2023-12-04T00:03:42;39.08;;;14.50;;
22363;SDS011;11349;53.412;-1.328;2023-12-04T00:06:09;34.83;;;15.20;;
22363;SDS011;11349;53.412;-1.328;2023-12-04T00:08:36;37.55;;;14.98;;
22363;SDS011;11349;53.412;-1.328;2023-12-04T00:11:03;35.45;;;14.23;;
22363;SDS011;11349;53.412;-1.328;2023-12-04T00:13:29;43.10;;;14.45;;
22363;SDS011;11349;53.412;-1.328;2023-12-04T00:15:55;45.15;;;14.43;;
22363;SDS011;11349;53.412;-1.328;2023-12-04T00:18:21;47.03;;;16.42;;
22363;SDS011;11349;53.412;-1.328;2023-12-04T00:20:47;31.73;;;13.88;;
22363;SDS011;11349;53.412;-1.328;2023-12-04T00:23:12;46.47;;;15.30;;
22363;SDS011;11349;53.412;-1.328;2023-12-04T00:25:38;44.83;;;14.85;;
22363;SDS011;11349;53.412;-1.328;2023-12-04T00:28:04;40.80;;;14.38;;
22363;SDS011;11349;53.412;-1.328;2023-12-04T00:30:29;54.10;;;15.15;;
22363;SDS011;11349;53.412;-1.328;2023-12-04T00:32:55;30.98;;;14.30;;
22363;SDS011;11349;53.412;-1.328;2023-12-04T00:35:20;36.17;;;13.50;;
22363;SDS011;11349;53.412;-1.328;2023-12-04T00:37:46;35.42;;;14.05;;
22363;SDS011;11349;53.412;-1.328;2023-12-04T00:40:12;25.85;;;11.85;;
22363;SDS011;11349;53.412;-1.328;2023-12-04T00:42:37;23.67;;;11.73;;
22363;SDS011;11349;53.412;-1.328;2023-12-04T00:45:03;29.90;;;11.55;;
22363;SDS011;11349;53.412;-1.328;2023-12-04T00:47:29;30.90;;;11.13;;
22363;SDS011;11349;53.412;-1.328;2023-12-04T00:49:55;27.60;;;12.25;;
22363;SDS011;11349;53.412;-1.328;2023-12-04T00:52:21;24.50;;;11.65;;
22363;SDS011;11349;53.412;-1.328;2023-12-04T00:54:46;30.02;;;11.48;;
22363;SDS011;11349;53.412;-1.328;2023-12-04T00:57:12;27.77;;;11.07;;
22363;SDS011;11349;53.412;-1.328;2023-12-04T00:59:38;22.77;;;10.00;;
22363;SDS011;11349;53.412;-1.328;2023-12-04T01:02:04;28.48;;;11.50;;
22363;SDS011;11349;53.412;-1.328;2023-12-04T01:04:31;28.10;;;10.85;;
22363;SDS011;11349;53.412;-1.328;2023-12-04T01:06:56;31.13;;;11.40;;
22363;SDS011;11349;53.412;-1.328;2023-12-04T01:09:22;24.42;;;11.88;;
22363;SDS011;11349;53.412;-1.328;2023-12-04T01:11:52;24.65;;;10.88;;
22363;SDS011;11349;53.412;-1.328;2023-12-04T01:14:19;27.85;;;11.10;;
22363;SDS011;11349;53.412;-1.328;2023-12-04T01:16:45;32.28;;;11.30;;
22363;SDS011;11349;53.412;-1.328;2023-12-04T01:19:11;22.15;;;11.93;;
22363;SDS011;11349;53.412;-1.328;2023-12-04T01:21:37;25.83;;;12.45;;
22363;SDS011;11349;53.412;-1.328;2023-12-04T01:24:03;26.77;;;12.85;;
22363;SDS011;11349;53.412;-1.328;2023-12-04T01:26:28;28.13;;;11.52;;
22363;SDS011;11349;53.412;-1.328;2023-12-04T01:28:54;29.88;;;11.32;;
22363;SDS011;11349;53.412;-1.328;2023-12-04T01:31:20;42.85;;;12.90;;
22363;SDS011;11349;53.412;-1.328;2023-12-04T01:33:46;25.23;;;11.77;;
22363;SDS011;11349;53.412;-1.328;2023-12-04T01:36:11;44.30;;;13.93;;
22363;SDS011;11349;53.412;-1.328;2023-12-04T01:38:37;41.15;;;13.18;;
22363;SDS011;11349;53.412;-1.328;2023-12-04T01:41:03;33.50;;;11.90;;
22363;SDS011;11349;53.412;-1.328;2023-12-04T01:43:29;27.60;;;12.50;;
22363;SDS011;11349;53.412;-1.328;2023-12-04T01:45:55;32.28;;;13.38;;
22363;SDS011;11349;53.412;-1.328;2023-12-04T01:48:21;26.10;;;12.10;;
22363;SDS011;11349;53.412;-1.328;2023-12-04T01:50:49;28.00;;;12.52;;
22363;SDS011;11349;53.412;-1.328;2023-12-04T01:53:15;24.45;;;11.23;;
22363;SDS011;11349;53.412;-1.328;2023-12-04T01:55:41;28.27;;;11.38;;
22363;SDS011;11349;53.412;-1.328;2023-12-04T01:58:07;27.30;;;11.07;;
22363;SDS011;11349;53.412;-1.328;2023-12-04T02:00:33;25.33;;;11.75;;
22363;SDS011;11349;53.412;-1.328;2023-12-04T02:02:59;23.20;;;11.68;;
22363;SDS011;11349;53.412;-1.328;2023-12-04T02:05:26;27.38;;;12.40;;
22363;SDS011;11349;53.412;-1.328;2023-12-04T02:07:52;24.67;;;11.32;;
22363;SDS011;11349;53.412;-1.328;2023-12-04T02:10:18;23.10;;;11.80;;
22363;SDS011;11349;53.412;-1.328;2023-12-04T02:12:44;26.73;;;12.02;;
22363;SDS011;11349;53.412;-1.328;2023-12-04T02:15:10;26.95;;;12.30;;
22363;SDS011;11349;53.412;-1.328;2023-12-04T02:17:36;24.48;;;11.77;;
22363;SDS011;11349;53.412;-1.328;2023-12-04T02:20:04;23.58;;;11.80;;
22363;SDS011;11349;53.412;-1.328;2023-12-04T02:22:30;37.10;;;11.93;;
22363;SDS011;11349;53.412;-1.328;2023-12-04T02:24:56;25.75;;;11.80;;
22363;SDS011;11349;53.412;-1.328;2023-12-04T02:27:28;35.47;;;12.48;;
22363;SDS011;11349;53.412;-1.328;2023-12-04T02:29:59;20.85;;;10.88;;
22363;SDS011;11349;53.412;-1.328;2023-12-04T02:32:27;24.60;;;11.55;;
22363;SDS011;11349;53.412;-1.328;2023-12-04T02:34:55;31.05;;;11.82;;
22363;SDS011;11349;53.412;-1.328;2023-12-04T02:37:23;24.67;;;11.02;;
22363;SDS011;11349;53.412;-1.328;2023-12-04T02:39:51;30.67;;;11.70;;
22363;SDS011;11349;53.412;-1.328;2023-12-04T02:42:20;24.33;;;11.77;;
22363;SDS011;11349;53.412;-1.328;2023-12-04T02:44:46;20.90;;;10.75;;
22363;SDS011;11349;53.412;-1.328;2023-12-04T02:47:12;23.25;;;10.75;;
22363;SDS011;11349;53.412;-1.328;2023-12-04T02:49:38;19.95;;;11.00;;
22363;SDS011;11349;53.412;-1.328;2023-12-04T02:52:04;23.58;;;11.38;;
22363;SDS011;11349;53.412;-1.328;2023-12-04T02:54:29;20.20;;;11.10;;
22363;SDS011;11349;53.412;-1.328;2023-12-04T02:56:55;19.88;;;11.85;;
22363;SDS011;11349;53.412;-1.328;2023-12-04T02:59:21;19.88;;;11.98;;
22363;SDS011;11349;53.412;-1.328;2023-12-04T03:01:46;17.55;;;9.85;;
22363;SDS011;11349;53.412;-1.328;2023-12-04T03:04:12;19.73;;;12.23;;
22363;SDS011;11349;53.412;-1.328;2023-12-04T03:06:38;20.13;;;9.95;;
22363;SDS011;11349;53.412;-1.328;2023-12-04T03:09:04;22.27;;;11.05;;
22363;SDS011;11349;53.412;-1.328;2023-12-04T03:11:30;28.08;;;11.02;;
22363;SDS011;11349;53.412;-1.328;2023-12-04T03:13:56;28.35;;;11.25;;
22363;SDS011;11349;53.412;-1.328;2023-12-04T03:16:22;32.70;;;12.07;;
22363;SDS011;11349;53.412;-1.328;2023-12-04T03:18:48;18.48;;;10.30;;
22363;SDS011;11349;53.412;-1.328;2023-12-04T03:21:14;44.75;;;13.80;;
22363;SDS011;11349;53.412;-1.328;2023-12-04T03:23:40;22.05;;;12.77;;
22363;SDS011;11349;53.412;-1.328;2023-12-04T03:26:05;22.98;;;12.68;;
22363;SDS011;11349;53.412;-1.328;2023-12-04T03:28:31;21.50;;;12.32;;
22363;SDS011;11349;53.412;-1.328;2023-12-04T03:30:57;23.92;;;11.75;;
22363;SDS011;11349;53.412;-1.328;2023-12-04T03:33:22;67.07;;;15.48;;
22363;SDS011;11349;53.412;-1.328;2023-12-04T03:35:48;25.83;;;13.43;;
22363;SDS011;11349;53.412;-1.328;2023-12-04T03:38:14;31.45;;;13.45;;
22363;SDS011;11349;53.412;-1.328;2023-12-04T03:40:40;24.50;;;13.10;;
22363;SDS011;11349;53.412;-1.328;2023-12-04T03:43:05;27.40;;;13.57;;
22363;SDS011;11349;53.412;-1.328;2023-12-04T03:45:31;34.47;;;13.93;;
22363;SDS011;11349;53.412;-1.328;2023-12-04T03:47:57;46.70;;;12.82;;
22363;SDS011;11349;53.412;-1.328;2023-12-04T03:50:22;33.08;;;12.45;;
22363;SDS011;11349;53.412;-1.328;2023-12-04T03:52:48;53.00;;;14.70;;
22363;SDS011;11349;53.412;-1.328;2023-12-04T03:55:14;85.85;;;15.18;;
22363;SDS011;11349;53.412;-1.328;2023-12-04T03:57:39;31.23;;;13.00;;
22363;SDS011;11349;53.412;-1.328;2023-12-04T04:00:05;21.85;;;11.73;;
22363;SDS011;11349;53.412;-1.328;2023-12-04T04:02:31;25.17;;;12.05;;
22363;SDS011;11349;53.412;-1.328;2023-12-04T04:04:57;25.83;;;13.02;;
22363;SDS011;11349;53.412;-1.328;2023-12-04T04:07:23;31.88;;;13.82;;
22363;SDS011;11349;53.412;-1.328;2023-12-04T04:09:48;27.23;;;13.90;;
22363;SDS011;11349;53.412;-1.328;2023-12-04T04:12:14;42.33;;;13.95;;
22363;SDS011;11349;53.412;-1.328;2023-12-04T04:14:40;39.10;;;14.00;;
22363;SDS011;11349;53.412;-1.328;2023-12-04T04:17:05;49.70;;;13.57;;
22363;SDS011;11349;53.412;-1.328;2023-12-04T04:19:31;36.03;;;12.13;;
22363;SDS011;11349;53.412;-1.328;2023-12-04T04:21:57;26.63;;;12.02;;
22363;SDS011;11349;53.412;-1.328;2023-12-04T04:24:23;38.38;;;13.02;;
22363;SDS011;11349;53.412;-1.328;2023-12-04T04:26:48;30.77;;;11.98;;
22363;SDS011;11349;53.412;-1.328;2023-12-04T04:29:14;41.03;;;12.27;;
22363;SDS011;11349;53.412;-1.328;2023-12-04T04:31:40;23.88;;;11.23;;
22363;SDS011;11349;53.412;-1.328;2023-12-04T04:34:05;21.45;;;10.45;;
22363;SDS011;11349;53.412;-1.328;2023-12-04T04:36:31;21.75;;;11.52;;
22363;SDS011;11349;53.412;-1.328;2023-12-04T04:38:57;30.63;;;11.65;;
22363;SDS011;11349;53.412;-1.328;2023-12-04T04:41:22;15.95;;;10.10;;
22363;SDS011;11349;53.412;-1.328;2023-12-04T04:43:48;24.38;;;10.85;;
22363;SDS011;11349;53.412;-1.328;2023-12-04T04:46:14;16.15;;;10.05;;
22363;SDS011;11349;53.412;-1.328;2023-12-04T04:48:40;25.58;;;11.10;;
22363;SDS011;11349;53.412;-1.328;2023-12-04T04:51:06;24.15;;;10.43;;
22363;SDS011;11349;53.412;-1.328;2023-12-04T04:53:32;22.48;;;8.85;;
22363;SDS011;11349;53.412;-1.328;2023-12-04T04:55:57;20.63;;;9.82;;
22363;SDS011;11349;53.412;-1.328;2023-12-04T04:58:23;28.15;;;10.10;;
22363;SDS011;11349;53.412;-1.328;2023-12-04T05:00:49;25.30;;;9.45;;
22363;SDS011;11349;53.412;-1.328;2023-12-04T05:03:15;36.33;;;10.80;;
22363;SDS011;11349;53.412;-1.328;2023-12-04T05:05:40;16.90;;;10.10;;
22363;SDS011;11349;53.412;-1.328;2023-12-04T05:08:06;15.48;;;9.27;;
22363;SDS011;11349;53.412;-1.328;2023-12-04T05:10:32;47.03;;;10.88;;
22363;SDS011;11349;53.412;-1.328;2023-12-04T05:12:58;29.15;;;9.65;;
22363;SDS011;11349;53.412;-1.328;2023-12-04T05:15:23;35.33;;;11.43;;
22363;SDS011;11349;53.412;-1.328;2023-12-04T05:17:50;28.70;;;9.95;;
22363;SDS011;11349;53.412;-1.328;2023-12-04T05:20:16;14.75;;;9.52;;
22363;SDS011;11349;53.412;-1.328;2023-12-04T05:22:42;17.27;;;9.70;;
22363;SDS011;11349;53.412;-1.328;2023-12-04T05:25:07;16.17;;;9.30;;
22363;SDS011;11349;53.412;-1.328;2023-12-04T05:27:33;17.35;;;9.90;;
22363;SDS011;11349;53.412;-1.328;2023-12-04T05:29:59;21.52;;;9.80;;
22363;SDS011;11349;53.412;-1.328;2023-12-04T05:32:24;17.42;;;8.70;;
22363;SDS011;11349;53.412;-1.328;2023-12-04T05:34:50;15.98;;;9.02;;
22363;SDS011;11349;53.412;-1.328;2023-12-04T05:37:16;16.30;;;9.48;;
22363;SDS011;11349;53.412;-1.328;2023-12-04T05:39:44;16.65;;;8.82;;
22363;SDS011;11349;53.412;-1.328;2023-12-04T05:42:09;33.30;;;10.20;;
22363;SDS011;11349;53.412;-1.328;2023-12-04T05:44:35;23.10;;;9.23;;
22363;SDS011;11349;53.412;-1.328;2023-12-04T05:47:01;22.17;;;9.23;;
22363;SDS011;11349;53.412;-1.328;2023-12-04T05:49:26;16.60;;;8.82;;
22363;SDS011;11349;53.412;-1.328;2023-12-04T05:51:54;12.35;;;8.02;;
22363;SDS011;11349;53.412;-1.328;2023-12-04T05:54:20;18.00;;;9.13;;
22363;SDS011;11349;53.412;-1.328;2023-12-04T05:56:45;15.32;;;8.07;;
22363;SDS011;11349;53.412;-1.328;2023-12-04T05:59:11;23.35;;;8.48;;
22363;SDS011;11349;53.412;-1.328;2023-12-04T06:01:37;15.32;;;8.68;;
22363;SDS011;11349;53.412;-1.328;2023-12-04T06:04:03;19.30;;;8.32;;
22363;SDS011;11349;53.412;-1.328;2023-12-04T06:06:29;27.05;;;8.35;;
22363;SDS011;11349;53.412;-1.328;2023-12-04T06:08:54;18.15;;;7.03;;
22363;SDS011;11349;53.412;-1.328;2023-12-04T06:11:20;14.73;;;8.20;;
22363;SDS011;11349;53.412;-1.328;2023-12-04T06:13:46;25.25;;;7.95;;
22363;SDS011;11349;53.412;-1.328;2023-12-04T06:16:12;12.13;;;7.07;;
22363;SDS011;11349;53.412;-1.328;2023-12-04T06:18:38;13.15;;;6.85;;
22363;SDS011;11349;53.412;-1.328;2023-12-04T06:21:04;14.38;;;9.80;;
22363;SDS011;11349;53.412;-1.328;2023-12-04T06:23:30;13.05;;;8.35;;
22363;SDS011;11349;53.412;-1.328;2023-12-04T06:25:56;14.13;;;8.43;;
22363;SDS011;11349;53.412;-1.328;2023-12-04T06:28:22;32.05;;;7.75;;
22363;SDS011;11349;53.412;-1.328;2023-12-04T06:30:48;38.78;;;8.75;;
22363;SDS011;11349;53.412;-1.328;2023-12-04T06:33:14;33.67;;;8.23;;
22363;SDS011;11349;53.412;-1.328;2023-12-04T06:35:40;15.10;;;7.13;;
22363;SDS011;11349;53.412;-1.328;2023-12-04T06:38:06;18.25;;;7.57;;
22363;SDS011;11349;53.412;-1.328;2023-12-04T06:40:33;27.92;;;7.95;;
22363;SDS011;11349;53.412;-1.328;2023-12-04T06:43:00;30.35;;;9.25;;
22363;SDS011;11349;53.412;-1.328;2023-12-04T06:45:26;44.30;;;10.27;;
22363;SDS011;11349;53.412;-1.328;2023-12-04T06:47:52;30.42;;;8.80;;
22363;SDS011;11349;53.412;-1.328;2023-12-04T06:50:19;30.92;;;9.10;;
22363;SDS011;11349;53.412;-1.328;2023-12-04T06:52:45;12.88;;;7.18;;
22363;SDS011;11349;53.412;-1.328;2023-12-04T06:55:11;14.68;;;8.07;;
22363;SDS011;11349;53.412;-1.328;2023-12-04T06:57:41;12.65;;;7.00;;
22363;SDS011;11349;53.412;-1.328;2023-12-04T07:00:07;10.52;;;6.38;;
22363;SDS011;11349;53.412;-1.328;2023-12-04T07:02:33;12.02;;;7.38;;
22363;SDS011;11349;53.412;-1.328;2023-12-04T07:04:59;10.38;;;6.40;;
22363;SDS011;11349;53.412;-1.328;2023-12-04T07:07:24;9.25;;;6.95;;
22363;SDS011;11349;53.412;-1.328;2023-12-04T07:09:50;12.95;;;8.25;;
22363;SDS011;11349;53.412;-1.328;2023-12-04T07:12:16;10.85;;;7.05;;
22363;SDS011;11349;53.412;-1.328;2023-12-04T07:14:41;12.15;;;7.72;;
22363;SDS011;11349;53.412;-1.328;2023-12-04T07:17:07;11.10;;;7.40;;
22363;SDS011;11349;53.412;-1.328;2023-12-04T07:19:33;11.93;;;7.45;;
22363;SDS011;11349;53.412;-1.328;2023-12-04T07:21:58;15.07;;;7.20;;
22363;SDS011;11349;53.412;-1.328;2023-12-04T07:24:24;15.63;;;7.40;;
22363;SDS011;11349;53.412;-1.328;2023-12-04T07:26:51;12.35;;;7.55;;
22363;SDS011;11349;53.412;-1.328;2023-12-04T07:29:17;13.13;;;7.50;;
22363;SDS011;11349;53.412;-1.328;2023-12-04T07:31:43;10.50;;;6.90;;
22363;SDS011;11349;53.412;-1.328;2023-12-04T07:34:09;10.00;;;7.55;;
22363;SDS011;11349;53.412;-1.328;2023-12-04T07:36:35;12.63;;;8.60;;
22363;SDS011;11349;53.412;-1.328;2023-12-04T07:39:01;18.92;;;9.40;;
22363;SDS011;11349;53.412;-1.328;2023-12-04T07:41:26;23.10;;;8.82;;
22363;SDS011;11349;53.412;-1.328;2023-12-04T07:43:52;19.60;;;9.88;;
22363;SDS011;11349;53.412;-1.328;2023-12-04T07:46:19;19.65;;;10.05;;
22363;SDS011;11349;53.412;-1.328;2023-12-04T07:48:45;16.15;;;9.65;;
22363;SDS011;11349;53.412;-1.328;2023-12-04T07:51:11;17.75;;;10.07;;
22363;SDS011;11349;53.412;-1.328;2023-12-04T07:53:37;14.02;;;8.38;;
22363;SDS011;11349;53.412;-1.328;2023-12-04T07:56:02;13.10;;;7.88;;
22363;SDS011;11349;53.412;-1.328;2023-12-04T07:58:29;14.05;;;6.88;;
22363;SDS011;11349;53.412;-1.328;2023-12-04T08:00:56;12.90;;;6.57;;
22363;SDS011;11349;53.412;-1.328;2023-12-04T08:03:22;12.75;;;6.63;;
22363;SDS011;11349;53.412;-1.328;2023-12-04T08:05:49;14.52;;;6.82;;
22363;SDS011;11349;53.412;-1.328;2023-12-04T08:08:15;11.93;;;7.15;;
22363;SDS011;11349;53.412;-1.328;2023-12-04T08:10:41;13.80;;;6.68;;
22363;SDS011;11349;53.412;-1.328;2023-12-04T08:13:07;12.45;;;6.50;;
22363;SDS011;11349;53.412;-1.328;2023-12-04T08:15:33;11.98;;;6.05;;
22363;SDS011;11349;53.412;-1.328;2023-12-04T08:17:58;10.05;;;6.45;;
22363;SDS011;11349;53.412;-1.328;2023-12-04T08:20:25;10.60;;;6.00;;
22363;SDS011;11349;53.412;-1.328;2023-12-04T08:22:51;11.27;;;6.22;;
22363;SDS011;11349;53.412;-1.328;2023-12-04T08:25:16;11.93;;;6.30;;
22363;SDS011;11349;53.412;-1.328;2023-12-04T08:27:42;12.40;;;7.07;;
22363;SDS011;11349;53.412;-1.328;2023-12-04T08:30:08;15.27;;;6.38;;
22363;SDS011;11349;53.412;-1.328;2023-12-04T08:32:34;9.35;;;5.90;;
22363;SDS011;11349;53.412;-1.328;2023-12-04T08:34:59;12.30;;;5.95;;
22363;SDS011;11349;53.412;-1.328;2023-12-04T08:37:25;10.50;;;6.20;;
22363;SDS011;11349;53.412;-1.328;2023-12-04T08:39:51;13.07;;;5.93;;
22363;SDS011;11349;53.412;-1.328;2023-12-04T08:42:16;12.68;;;7.43;;
22363;SDS011;11349;53.412;-1.328;2023-12-04T08:44:43;14.02;;;6.53;;
22363;SDS011;11349;53.412;-1.328;2023-12-04T08:47:10;11.63;;;7.15;;
22363;SDS011;11349;53.412;-1.328;2023-12-04T08:49:37;10.68;;;5.85;;
22363;SDS011;11349;53.412;-1.328;2023-12-04T08:52:05;16.23;;;5.97;;
22363;SDS011;11349;53.412;-1.328;2023-12-04T08:54:34;12.15;;;6.25;;
22363;SDS011;11349;53.412;-1.328;2023-12-04T08:57:04;14.82;;;6.78;;
22363;SDS011;11349;53.412;-1.328;2023-12-04T08:59:30;10.07;;;6.28;;
22363;SDS011;11349;53.412;-1.328;2023-12-04T09:01:55;14.82;;;6.40;;
22363;SDS011;11349;53.412;-1.328;2023-12-04T09:04:21;10.75;;;6.25;;
22363;SDS011;11349;53.412;-1.328;2023-12-04T09:06:46;15.55;;;6.68;;
22363;SDS011;11349;53.412;-1.328;2023-12-04T09:09:12;16.75;;;6.97;;
22363;SDS011;11349;53.412;-1.328;2023-12-04T09:11:43;13.63;;;6.72;;
22363;SDS011;11349;53.412;-1.328;2023-12-04T09:14:09;12.05;;;7.28;;
22363;SDS011;11349;53.412;-1.328;2023-12-04T09:16:35;16.20;;;7.35;;
22363;SDS011;11349;53.412;-1.328;2023-12-04T09:19:01;12.80;;;7.05;;
22363;SDS011;11349;53.412;-1.328;2023-12-04T09:21:26;14.35;;;6.97;;
22363;SDS011;11349;53.412;-1.328;2023-12-04T09:23:52;18.80;;;8.75;;
22363;SDS011;11349;53.412;-1.328;2023-12-04T09:26:18;16.33;;;6.68;;
22363;SDS011;11349;53.412;-1.328;2023-12-04T09:28:44;15.82;;;6.97;;
22363;SDS011;11349;53.412;-1.328;2023-12-04T09:31:09;14.93;;;7.55;;
22363;SDS011;11349;53.412;-1.328;2023-12-04T09:33:35;19.10;;;7.68;;
22363;SDS011;11349;53.412;-1.328;2023-12-04T09:36:01;15.13;;;8.25;;
22363;SDS011;11349;53.412;-1.328;2023-12-04T09:38:28;20.27;;;9.73;;
22363;SDS011;11349;53.412;-1.328;2023-12-04T09:40:54;18.55;;;10.02;;
22363;SDS011;11349;53.412;-1.328;2023-12-04T09:43:25;21.58;;;11.02;;
22363;SDS011;11349;53.412;-1.328;2023-12-04T09:45:51;16.75;;;7.50;;
22363;SDS011;11349;53.412;-1.328;2023-12-04T09:48:18;19.48;;;8.00;;
22363;SDS011;11349;53.412;-1.328;2023-12-04T09:50:46;16.98;;;8.30;;
22363;SDS011;11349;53.412;-1.328;2023-12-04T09:53:12;20.02;;;8.57;;
22363;SDS011;11349;53.412;-1.328;2023-12-04T09:55:38;16.55;;;9.68;;
22363;SDS011;11349;53.412;-1.328;2023-12-04T09:58:05;21.95;;;9.60;;
22363;SDS011;11349;53.412;-1.328;2023-12-04T10:00:31;17.20;;;8.57;;
22363;SDS011;11349;53.412;-1.328;2023-12-04T10:02:57;16.38;;;8.93;;
22363;SDS011;11349;53.412;-1.328;2023-12-04T10:05:24;16.45;;;7.28;;
22363;SDS011;11349;53.412;-1.328;2023-12-04T10:07:50;20.02;;;8.50;;
22363;SDS011;11349;53.412;-1.328;2023-12-04T10:10:16;15.57;;;7.32;;
22363;SDS011;11349;53.412;-1.328;2023-12-04T10:12:43;15.48;;;7.38;;
22363;SDS011;11349;53.412;-1.328;2023-12-04T10:15:10;14.85;;;7.20;;
22363;SDS011;11349;53.412;-1.328;2023-12-04T10:17:37;13.45;;;6.88;;
22363;SDS011;11349;53.412;-1.328;2023-12-04T10:20:11;12.30;;;6.72;;
22363;SDS011;11349;53.412;-1.328;2023-12-04T10:25:37;15.25;;;8.88;;
22363;SDS011;11349;53.412;-1.328;2023-12-04T10:28:12;17.48;;;7.47;;
22363;SDS011;11349;53.412;-1.328;2023-12-04T10:30:40;12.90;;;7.18;;
22363;SDS011;11349;53.412;-1.328;2023-12-04T10:33:06;15.02;;;8.18;;
22363;SDS011;11349;53.412;-1.328;2023-12-04T10:35:33;15.23;;;8.18;;
22363;SDS011;11349;53.412;-1.328;2023-12-04T10:38:04;16.30;;;7.85;;
22363;SDS011;11349;53.412;-1.328;2023-12-04T10:40:31;15.20;;;7.40;;
22363;SDS011;11349;53.412;-1.328;2023-12-04T10:43:17;16.92;;;8.27;;
22363;SDS011;11349;53.412;-1.328;2023-12-04T10:45:47;12.57;;;7.90;;
22363;SDS011;11349;53.412;-1.328;2023-12-04T10:48:14;16.05;;;7.93;;
22363;SDS011;11349;53.412;-1.328;2023-12-04T10:50:45;14.48;;;7.63;;
22363;SDS011;11349;53.412;-1.328;2023-12-04T10:53:12;12.65;;;7.68;;
22363;SDS011;11349;53.412;-1.328;2023-12-04T10:55:39;13.50;;;7.80;;
22363;SDS011;11349;53.412;-1.328;2023-12-04T10:58:06;16.08;;;9.02;;
22363;SDS011;11349;53.412;-1.328;2023-12-04T11:00:34;13.15;;;8.38;;
22363;SDS011;11349;53.412;-1.328;2023-12-04T11:03:07;17.90;;;8.40;;
22363;SDS011;11349;53.412;-1.328;2023-12-04T11:05:37;17.90;;;9.10;;
22363;SDS011;11349;53.412;-1.328;2023-12-04T11:08:14;15.63;;;9.02;;
22363;SDS011;11349;53.412;-1.328;2023-12-04T11:10:45;16.50;;;9.40;;
22363;SDS011;11349;53.412;-1.328;2023-12-04T11:13:23;19.90;;;9.60;;
22363;SDS011;11349;53.412;-1.328;2023-12-04T11:15:54;17.95;;;10.00;;
22363;SDS011;11349;53.412;-1.328;2023-12-04T11:18:31;16.92;;;9.55;;
22363;SDS011;11349;53.412;-1.328;2023-12-04T11:21:03;17.40;;;9.40;;
22363;SDS011;11349;53.412;-1.328;2023-12-04T11:23:32;17.48;;;9.73;;
22363;SDS011;11349;53.412;-1.328;2023-12-04T11:25:59;18.75;;;9.85;;
22363;SDS011;11349;53.412;-1.328;2023-12-04T11:28:26;16.77;;;9.07;;
22363;SDS011;11349;53.412;-1.328;2023-12-04T11:30:55;18.13;;;9.40;;
22363;SDS011;11349;53.412;-1.328;2023-12-04T11:33:21;16.35;;;10.05;;
22363;SDS011;11349;53.412;-1.328;2023-12-04T11:35:47;18.52;;;9.48;;
22363;SDS011;11349;53.412;-1.328;2023-12-04T11:38:13;14.90;;;9.40;;
22363;SDS011;11349;53.412;-1.328;2023-12-04T11:40:40;20.77;;;10.00;;
22363;SDS011;11349;53.412;-1.328;2023-12-04T11:43:26;17.17;;;9.38;;
22363;SDS011;11349;53.412;-1.328;2023-12-04T11:46:07;15.00;;;9.23;;
22363;SDS011;11349;53.412;-1.328;2023-12-04T11:48:39;17.45;;;9.80;;
22363;SDS011;11349;53.412;-1.328;2023-12-04T11:51:07;19.15;;;9.82;;
22363;SDS011;11349;53.412;-1.328;2023-12-04T11:53:43;13.95;;;9.40;;
22363;SDS011;11349;53.412;-1.328;2023-12-04T11:56:10;16.02;;;9.05;;
22363;SDS011;11349;53.412;-1.328;2023-12-04T11:58:43;16.02;;;8.98;;
22363;SDS011;11349;53.412;-1.328;2023-12-04T12:01:09;14.90;;;8.75;;
22363;SDS011;11349;53.412;-1.328;2023-12-04T12:03:35;19.17;;;9.32;;
22363;SDS011;11349;53.412;-1.328;2023-12-04T12:06:00;13.80;;;9.20;;
22363;SDS011;11349;53.412;-1.328;2023-12-04T12:08:27;18.63;;;9.55;;
22363;SDS011;11349;53.412;-1.328;2023-12-04T12:10:54;14.32;;;8.45;;
22363;SDS011;11349;53.412;-1.328;2023-12-04T12:13:21;13.98;;;8.70;;
22363;SDS011;11349;53.412;-1.328;2023-12-04T12:15:48;15.90;;;8.93;;
22363;SDS011;11349;53.412;-1.328;2023-12-04T12:18:16;18.67;;;8.68;;
22363;SDS011;11349;53.412;-1.328;2023-12-04T12:20:41;14.10;;;7.97;;
22363;SDS011;11349;53.412;-1.328;2023-12-04T12:23:07;12.90;;;7.82;;
22363;SDS011;11349;53.412;-1.328;2023-12-04T12:25:34;17.00;;;8.43;;
22363;SDS011;11349;53.412;-1.328;2023-12-04T12:28:04;14.05;;;7.70;;
22363;SDS011;11349;53.412;-1.328;2023-12-04T12:30:30;16.25;;;7.65;;
22363;SDS011;11349;53.412;-1.328;2023-12-04T12:32:56;14.65;;;8.52;;
22363;SDS011;11349;53.412;-1.328;2023-12-04T12:35:22;15.63;;;8.43;;
22363;SDS011;11349;53.412;-1.328;2023-12-04T12:37:48;17.27;;;7.80;;
22363;SDS011;11349;53.412;-1.328;2023-12-04T12:40:18;12.68;;;7.35;;
22363;SDS011;11349;53.412;-1.328;2023-12-04T12:42:45;10.55;;;6.95;;
22363;SDS011;11349;53.412;-1.328;2023-12-04T12:45:11;16.90;;;8.05;;
22363;SDS011;11349;53.412;-1.328;2023-12-04T12:47:37;13.30;;;7.43;;
22363;SDS011;11349;53.412;-1.328;2023-12-04T12:50:07;11.10;;;7.35;;
22363;SDS011;11349;53.412;-1.328;2023-12-04T12:52:36;12.05;;;6.95;;
22363;SDS011;11349;53.412;-1.328;2023-12-04T12:55:02;12.55;;;7.22;;
22363;SDS011;11349;53.412;-1.328;2023-12-04T12:57:29;16.80;;;7.55;;
22363;SDS011;11349;53.412;-1.328;2023-12-04T12:59:55;12.10;;;7.88;;
22363;SDS011;11349;53.412;-1.328;2023-12-04T13:02:21;10.15;;;6.72;;
22363;SDS011;11349;53.412;-1.328;2023-12-04T13:04:47;13.80;;;8.55;;
22363;SDS011;11349;53.412;-1.328;2023-12-04T13:07:13;16.77;;;8.57;;
22363;SDS011;11349;53.412;-1.328;2023-12-04T13:09:39;18.58;;;8.73;;
22363;SDS011;11349;53.412;-1.328;2023-12-04T13:12:05;15.40;;;8.43;;
22363;SDS011;11349;53.412;-1.328;2023-12-04T13:14:33;12.02;;;7.85;;
22363;SDS011;11349;53.412;-1.328;2023-12-04T13:17:03;15.02;;;7.32;;
22363;SDS011;11349;53.412;-1.328;2023-12-04T13:19:28;14.68;;;9.30;;
22363;SDS011;11349;53.412;-1.328;2023-12-04T13:21:56;13.73;;;7.40;;
22363;SDS011;11349;53.412;-1.328;2023-12-04T13:24:22;14.95;;;8.48;;
22363;SDS011;11349;53.412;-1.328;2023-12-04T13:26:48;12.88;;;7.72;;
22363;SDS011;11349;53.412;-1.328;2023-12-04T13:29:13;13.18;;;7.78;;
22363;SDS011;11349;53.412;-1.328;2023-12-04T13:31:44;18.92;;;8.05;;
22363;SDS011;11349;53.412;-1.328;2023-12-04T13:34:11;12.23;;;8.18;;
22363;SDS011;11349;53.412;-1.328;2023-12-04T13:36:37;14.43;;;8.32;;
22363;SDS011;11349;53.412;-1.328;2023-12-04T13:39:03;13.20;;;7.53;;
22363;SDS011;11349;53.412;-1.328;2023-12-04T13:41:41;13.45;;;8.00;;
22363;SDS011;11349;53.412;-1.328;2023-12-04T13:44:27;14.93;;;8.10;;
22363;SDS011;11349;53.412;-1.328;2023-12-04T13:46:54;15.43;;;7.47;;
22363;SDS011;11349;53.412;-1.328;2023-12-04T13:49:20;14.95;;;7.85;;
22363;SDS011;11349;53.412;-1.328;2023-12-04T13:51:46;15.73;;;7.82;;
22363;SDS011;11349;53.412;-1.328;2023-12-04T13:54:14;11.90;;;7.22;;
22363;SDS011;11349;53.412;-1.328;2023-12-04T13:57:00;14.60;;;7.13;;
22363;SDS011;11349;53.412;-1.328;2023-12-04T13:59:26;12.85;;;7.32;;
22363;SDS011;11349;53.412;-1.328;2023-12-04T14:01:52;12.77;;;7.00;;
22363;SDS011;11349;53.412;-1.328;2023-12-04T14:04:21;13.50;;;7.43;;
22363;SDS011;11349;53.412;-1.328;2023-12-04T14:06:49;12.73;;;6.63;;
22363;SDS011;11349;53.412;-1.328;2023-12-04T14:09:15;10.40;;;7.18;;
22363;SDS011;11349;53.412;-1.328;2023-12-04T14:11:42;14.07;;;6.97;;
22363;SDS011;11349;53.412;-1.328;2023-12-04T14:14:09;14.25;;;7.18;;
22363;SDS011;11349;53.412;-1.328;2023-12-04T14:16:35;14.93;;;7.28;;